sensor_id;sensor_type;location;lat;lon;timestamp;temperature;humidity
1297;DHT22;641;48.492;9.184;2023-07-08T00:00:04;23.30;33.30
1297;DHT22;641;48.492;9.184;2023-07-08T00:02:35;23.30;33.20
1297;DHT22;641;48.492;9.184;2023-07-08T00:05:00;23.20;33.30
1297;DHT22;641;48.492;9.184;2023-07-08T00:07:26;23.20;33.50
1297;DHT22;641;48.492;9.184;2023-07-08T00:09:51;23.10;33.30
1297;DHT22;641;48.492;9.184;2023-07-08T00:12:17;23.10;33.40
1297;DHT22;641;48.492;9.184;2023-07-08T00:14:42;23.10;33.60
1297;DHT22;641;48.492;9.184;2023-07-08T00:17:11;23.00;33.50
1297;DHT22;641;48.492;9.184;2023-07-08T00:19:37;23.00;33.80
1297;DHT22;641;48.492;9.184;2023-07-08T00:22:16;22.90;33.80
1297;DHT22;641;48.492;9.184;2023-07-08T00:24:42;22.90;34.00
1297;DHT22;641;48.492;9.184;2023-07-08T00:27:12;22.90;33.90
1297;DHT22;641;48.492;9.184;2023-07-08T00:29:40;22.90;33.90
1297;DHT22;641;48.492;9.184;2023-07-08T00:32:14;22.80;33.80
1297;DHT22;641;48.492;9.184;2023-07-08T00:34:40;22.70;34.20
1297;DHT22;641;48.492;9.184;2023-07-08T00:37:10;22.70;33.80
1297;DHT22;641;48.492;9.184;2023-07-08T00:39:36;22.70;34.30
1297;DHT22;641;48.492;9.184;2023-07-08T00:42:10;22.70;34.40
1297;DHT22;641;48.492;9.184;2023-07-08T00:44:37;22.50;34.60
1297;DHT22;641;48.492;9.184;2023-07-08T00:47:07;22.50;34.80
1297;DHT22;641;48.492;9.184;2023-07-08T00:49:44;22.40;34.70
1297;DHT22;641;48.492;9.184;2023-07-08T00:52:28;22.30;35.00
1297;DHT22;641;48.492;9.184;2023-07-08T00:54:57;22.30;35.20
1297;DHT22;641;48.492;9.184;2023-07-08T00:57:26;22.20;35.20
1297;DHT22;641;48.492;9.184;2023-07-08T01:00:05;22.20;35.60
1297;DHT22;641;48.492;9.184;2023-07-08T01:02:39;22.10;35.70
1297;DHT22;641;48.492;9.184;2023-07-08T01:05:11;22.10;35.80
1297;DHT22;641;48.492;9.184;2023-07-08T01:07:39;22.00;35.70
1297;DHT22;641;48.492;9.184;2023-07-08T01:10:09;21.90;35.80
1297;DHT22;641;48.492;9.184;2023-07-08T01:12:42;21.90;36.40
1297;DHT22;641;48.492;9.184;2023-07-08T01:15:09;21.90;36.60
1297;DHT22;641;48.492;9.184;2023-07-08T01:17:35;21.90;36.60
1297;DHT22;641;48.492;9.184;2023-07-08T01:20:02;21.80;36.70
1297;DHT22;641;48.492;9.184;2023-07-08T01:22:34;21.80;36.80
1297;DHT22;641;48.492;9.184;2023-07-08T01:25:00;21.70;36.70
1297;DHT22;641;48.492;9.184;2023-07-08T01:27:32;21.80;36.70
1297;DHT22;641;48.492;9.184;2023-07-08T01:30:00;21.80;36.80
1297;DHT22;641;48.492;9.184;2023-07-08T01:32:27;21.70;37.00
1297;DHT22;641;48.492;9.184;2023-07-08T01:34:56;21.70;36.90
1297;DHT22;641;48.492;9.184;2023-07-08T01:37:43;21.70;37.10
1297;DHT22;641;48.492;9.184;2023-07-08T01:42:47;21.80;37.00
1297;DHT22;641;48.492;9.184;2023-07-08T01:45:14;21.80;36.80
1297;DHT22;641;48.492;9.184;2023-07-08T01:47:42;21.80;37.00
1297;DHT22;641;48.492;9.184;2023-07-08T01:50:09;21.80;37.10
1297;DHT22;641;48.492;9.184;2023-07-08T01:52:36;21.80;36.80
1297;DHT22;641;48.492;9.184;2023-07-08T01:55:02;21.90;37.00
1297;DHT22;641;48.492;9.184;2023-07-08T01:57:28;21.80;37.10
1297;DHT22;641;48.492;9.184;2023-07-08T01:59:53;21.80;37.00
1297;DHT22;641;48.492;9.184;2023-07-08T02:02:19;21.80;37.20
1297;DHT22;641;48.492;9.184;2023-07-08T02:04:45;21.80;37.10
1297;DHT22;641;48.492;9.184;2023-07-08T02:07:10;21.80;37.10
1297;DHT22;641;48.492;9.184;2023-07-08T02:09:36;21.80;37.10
1297;DHT22;641;48.492;9.184;2023-07-08T02:12:01;21.80;38.00
1297;DHT22;641;48.492;9.184;2023-07-08T02:14:27;21.70;37.40
1297;DHT22;641;48.492;9.184;2023-07-08T02:16:52;21.60;37.90
1297;DHT22;641;48.492;9.184;2023-07-08T02:19:19;21.60;37.80
1297;DHT22;641;48.492;9.184;2023-07-08T02:21:44;21.60;37.90
1297;DHT22;641;48.492;9.184;2023-07-08T02:24:10;21.50;38.80
1297;DHT22;641;48.492;9.184;2023-07-08T02:26:36;21.40;38.90
1297;DHT22;641;48.492;9.184;2023-07-08T02:29:02;21.40;39.10
1297;DHT22;641;48.492;9.184;2023-07-08T02:31:28;21.30;38.90
1297;DHT22;641;48.492;9.184;2023-07-08T02:33:54;21.20;39.50
1297;DHT22;641;48.492;9.184;2023-07-08T02:36:20;21.00;39.40
1297;DHT22;641;48.492;9.184;2023-07-08T02:38:46;21.00;40.70
1297;DHT22;641;48.492;9.184;2023-07-08T02:41:11;20.80;41.20
1297;DHT22;641;48.492;9.184;2023-07-08T02:43:38;20.70;41.10
1297;DHT22;641;48.492;9.184;2023-07-08T02:46:03;20.60;41.20
1297;DHT22;641;48.492;9.184;2023-07-08T02:48:29;20.50;41.80
1297;DHT22;641;48.492;9.184;2023-07-08T02:51:02;20.40;41.70
1297;DHT22;641;48.492;9.184;2023-07-08T02:53:28;20.20;42.10
1297;DHT22;641;48.492;9.184;2023-07-08T02:55:54;20.10;42.90
1297;DHT22;641;48.492;9.184;2023-07-08T02:58:20;20.00;43.60
1297;DHT22;641;48.492;9.184;2023-07-08T03:00:45;19.90;43.70
1297;DHT22;641;48.492;9.184;2023-07-08T03:03:11;19.80;44.30
1297;DHT22;641;48.492;9.184;2023-07-08T03:05:36;19.70;44.20
1297;DHT22;641;48.492;9.184;2023-07-08T03:08:02;19.80;45.30
1297;DHT22;641;48.492;9.184;2023-07-08T03:10:27;19.70;46.60
1297;DHT22;641;48.492;9.184;2023-07-08T03:12:53;19.60;45.80
1297;DHT22;641;48.492;9.184;2023-07-08T03:15:19;19.40;45.90
1297;DHT22;641;48.492;9.184;2023-07-08T03:17:44;19.40;46.60
1297;DHT22;641;48.492;9.184;2023-07-08T03:20:10;19.30;46.50
1297;DHT22;641;48.492;9.184;2023-07-08T03:22:37;19.20;46.90
1297;DHT22;641;48.492;9.184;2023-07-08T03:25:03;19.10;47.70
1297;DHT22;641;48.492;9.184;2023-07-08T03:27:28;19.20;48.70
1297;DHT22;641;48.492;9.184;2023-07-08T03:29:54;19.10;49.20
1297;DHT22;641;48.492;9.184;2023-07-08T03:32:19;19.10;48.50
1297;DHT22;641;48.492;9.184;2023-07-08T03:34:45;19.10;48.60
1297;DHT22;641;48.492;9.184;2023-07-08T03:37:11;19.00;48.90
1297;DHT22;641;48.492;9.184;2023-07-08T03:39:36;18.90;48.90
1297;DHT22;641;48.492;9.184;2023-07-08T03:42:02;19.00;48.80
1297;DHT22;641;48.492;9.184;2023-07-08T03:44:29;19.00;48.10
1297;DHT22;641;48.492;9.184;2023-07-08T03:46:55;19.20;47.60
1297;DHT22;641;48.492;9.184;2023-07-08T03:49:22;19.20;47.60
1297;DHT22;641;48.492;9.184;2023-07-08T03:51:51;19.30;49.40
1297;DHT22;641;48.492;9.184;2023-07-08T03:54:21;19.10;50.50
1297;DHT22;641;48.492;9.184;2023-07-08T03:56:48;18.90;51.60
1297;DHT22;641;48.492;9.184;2023-07-08T03:59:13;18.90;51.10
1297;DHT22;641;48.492;9.184;2023-07-08T04:01:39;19.00;50.90
1297;DHT22;641;48.492;9.184;2023-07-08T04:04:08;19.20;49.60
1297;DHT22;641;48.492;9.184;2023-07-08T04:06:34;19.30;48.50
1297;DHT22;641;48.492;9.184;2023-07-08T04:08:59;19.50;49.10
1297;DHT22;641;48.492;9.184;2023-07-08T04:11:26;19.40;51.30
1297;DHT22;641;48.492;9.184;2023-07-08T04:13:52;19.20;51.80
1297;DHT22;641;48.492;9.184;2023-07-08T04:18:46;19.30;52.00
1297;DHT22;641;48.492;9.184;2023-07-08T04:21:11;19.30;50.90
1297;DHT22;641;48.492;9.184;2023-07-08T04:23:37;19.50;51.70
1297;DHT22;641;48.492;9.184;2023-07-08T04:26:02;19.70;54.30
1297;DHT22;641;48.492;9.184;2023-07-08T04:28:28;19.90;52.50
1297;DHT22;641;48.492;9.184;2023-07-08T04:30:53;19.70;52.60
1297;DHT22;641;48.492;9.184;2023-07-08T04:33:19;19.70;53.80
1297;DHT22;641;48.492;9.184;2023-07-08T04:35:45;19.60;51.70
1297;DHT22;641;48.492;9.184;2023-07-08T04:38:20;19.30;50.90
1297;DHT22;641;48.492;9.184;2023-07-08T04:40:47;19.20;51.60
1297;DHT22;641;48.492;9.184;2023-07-08T04:43:13;19.10;52.40
1297;DHT22;641;48.492;9.184;2023-07-08T04:45:40;19.20;53.30
1297;DHT22;641;48.492;9.184;2023-07-08T04:48:09;19.20;53.70
1297;DHT22;641;48.492;9.184;2023-07-08T04:50:42;19.40;52.70
1297;DHT22;641;48.492;9.184;2023-07-08T04:53:09;19.70;53.30
1297;DHT22;641;48.492;9.184;2023-07-08T04:55:53;20.00;52.50
1297;DHT22;641;48.492;9.184;2023-07-08T04:58:20;20.00;51.10
1297;DHT22;641;48.492;9.184;2023-07-08T05:00:46;20.20;51.50
1297;DHT22;641;48.492;9.184;2023-07-08T05:03:12;20.20;51.10
1297;DHT22;641;48.492;9.184;2023-07-08T05:05:37;19.90;51.10
1297;DHT22;641;48.492;9.184;2023-07-08T05:08:03;19.70;52.10
1297;DHT22;641;48.492;9.184;2023-07-08T05:10:29;19.60;52.90
1297;DHT22;641;48.492;9.184;2023-07-08T05:12:54;19.60;53.20
1297;DHT22;641;48.492;9.184;2023-07-08T05:15:20;19.50;54.20
1297;DHT22;641;48.492;9.184;2023-07-08T05:17:46;19.50;54.70
1297;DHT22;641;48.492;9.184;2023-07-08T05:20:13;19.50;54.70
1297;DHT22;641;48.492;9.184;2023-07-08T05:22:40;19.50;54.40
1297;DHT22;641;48.492;9.184;2023-07-08T05:25:06;19.50;54.20
1297;DHT22;641;48.492;9.184;2023-07-08T05:27:32;19.50;53.70
1297;DHT22;641;48.492;9.184;2023-07-08T05:30:05;19.60;53.00
1297;DHT22;641;48.492;9.184;2023-07-08T05:32:31;19.80;54.50
1297;DHT22;641;48.492;9.184;2023-07-08T05:34:57;20.00;53.30
1297;DHT22;641;48.492;9.184;2023-07-08T05:37:23;20.20;53.70
1297;DHT22;641;48.492;9.184;2023-07-08T05:39:51;20.20;53.60
1297;DHT22;641;48.492;9.184;2023-07-08T05:42:19;20.30;53.70
1297;DHT22;641;48.492;9.184;2023-07-08T05:44:44;20.40;52.80
1297;DHT22;641;48.492;9.184;2023-07-08T05:47:10;20.50;53.50
1297;DHT22;641;48.492;9.184;2023-07-08T05:49:35;20.60;53.70
1297;DHT22;641;48.492;9.184;2023-07-08T05:52:02;20.60;53.40
1297;DHT22;641;48.492;9.184;2023-07-08T05:54:33;20.60;51.90
1297;DHT22;641;48.492;9.184;2023-07-08T05:56:59;20.80;53.00
1297;DHT22;641;48.492;9.184;2023-07-08T05:59:24;20.70;52.60
1297;DHT22;641;48.492;9.184;2023-07-08T06:01:50;20.90;53.90
1297;DHT22;641;48.492;9.184;2023-07-08T06:04:15;20.80;51.80
1297;DHT22;641;48.492;9.184;2023-07-08T06:06:41;21.00;52.90
1297;DHT22;641;48.492;9.184;2023-07-08T06:09:06;20.90;52.70
1297;DHT22;641;48.492;9.184;2023-07-08T06:11:32;20.70;52.40
1297;DHT22;641;48.492;9.184;2023-07-08T06:13:58;20.60;52.20
1297;DHT22;641;48.492;9.184;2023-07-08T06:16:23;20.70;54.70
1297;DHT22;641;48.492;9.184;2023-07-08T06:18:49;20.70;53.00
1297;DHT22;641;48.492;9.184;2023-07-08T06:21:14;20.60;52.30
1297;DHT22;641;48.492;9.184;2023-07-08T06:23:40;20.60;52.40
1297;DHT22;641;48.492;9.184;2023-07-08T06:26:05;20.60;52.40
1297;DHT22;641;48.492;9.184;2023-07-08T06:28:31;20.70;52.80
1297;DHT22;641;48.492;9.184;2023-07-08T06:30:56;20.90;54.30
1297;DHT22;641;48.492;9.184;2023-07-08T06:33:22;21.00;53.70
1297;DHT22;641;48.492;9.184;2023-07-08T06:35:48;21.00;53.80
1297;DHT22;641;48.492;9.184;2023-07-08T06:38:13;21.10;52.40
1297;DHT22;641;48.492;9.184;2023-07-08T06:40:39;20.80;52.60
1297;DHT22;641;48.492;9.184;2023-07-08T06:43:04;20.70;53.60
1297;DHT22;641;48.492;9.184;2023-07-08T06:45:30;20.60;55.20
1297;DHT22;641;48.492;9.184;2023-07-08T06:47:55;20.60;55.90
1297;DHT22;641;48.492;9.184;2023-07-08T06:50:21;20.80;55.30
1297;DHT22;641;48.492;9.184;2023-07-08T06:52:47;21.00;55.90
1297;DHT22;641;48.492;9.184;2023-07-08T06:55:12;21.20;55.80
1297;DHT22;641;48.492;9.184;2023-07-08T06:57:38;21.40;55.80
1297;DHT22;641;48.492;9.184;2023-07-08T07:00:08;21.50;54.60
1297;DHT22;641;48.492;9.184;2023-07-08T07:02:34;21.70;53.90
1297;DHT22;641;48.492;9.184;2023-07-08T07:05:01;21.80;54.50
1297;DHT22;641;48.492;9.184;2023-07-08T07:07:27;22.00;53.80
1297;DHT22;641;48.492;9.184;2023-07-08T07:09:53;22.10;53.40
1297;DHT22;641;48.492;9.184;2023-07-08T07:12:20;22.30;53.30
1297;DHT22;641;48.492;9.184;2023-07-08T07:14:45;22.50;53.20
1297;DHT22;641;48.492;9.184;2023-07-08T07:17:11;22.70;52.30
1297;DHT22;641;48.492;9.184;2023-07-08T07:19:37;22.90;52.60
1297;DHT22;641;48.492;9.184;2023-07-08T07:22:03;23.10;53.00
1297;DHT22;641;48.492;9.184;2023-07-08T07:24:28;23.20;52.70
1297;DHT22;641;48.492;9.184;2023-07-08T07:26:54;23.40;51.70
1297;DHT22;641;48.492;9.184;2023-07-08T07:29:22;23.60;52.50
1297;DHT22;641;48.492;9.184;2023-07-08T07:31:48;23.80;50.80
1297;DHT22;641;48.492;9.184;2023-07-08T07:34:14;23.80;51.10
1297;DHT22;641;48.492;9.184;2023-07-08T07:36:40;23.90;50.90
1297;DHT22;641;48.492;9.184;2023-07-08T07:39:05;23.80;48.70
1297;DHT22;641;48.492;9.184;2023-07-08T07:41:31;23.70;48.90
1297;DHT22;641;48.492;9.184;2023-07-08T07:43:56;23.80;51.60
1297;DHT22;641;48.492;9.184;2023-07-08T07:46:22;23.90;49.70
1297;DHT22;641;48.492;9.184;2023-07-08T07:48:48;24.00;49.80
1297;DHT22;641;48.492;9.184;2023-07-08T07:51:13;23.80;50.00
1297;DHT22;641;48.492;9.184;2023-07-08T07:53:39;23.70;50.80
1297;DHT22;641;48.492;9.184;2023-07-08T07:56:05;23.60;49.50
1297;DHT22;641;48.492;9.184;2023-07-08T07:58:32;23.40;49.70
1297;DHT22;641;48.492;9.184;2023-07-08T08:00:58;23.30;50.20
1297;DHT22;641;48.492;9.184;2023-07-08T08:03:23;23.40;51.50
1297;DHT22;641;48.492;9.184;2023-07-08T08:05:49;23.50;50.30
1297;DHT22;641;48.492;9.184;2023-07-08T08:08:15;23.60;50.40
1297;DHT22;641;48.492;9.184;2023-07-08T08:10:42;23.90;47.90
1297;DHT22;641;48.492;9.184;2023-07-08T08:13:08;24.10;48.60
1297;DHT22;641;48.492;9.184;2023-07-08T08:15:35;24.40;48.60
1297;DHT22;641;48.492;9.184;2023-07-08T08:18:01;24.30;49.40
1297;DHT22;641;48.492;9.184;2023-07-08T08:20:28;24.20;48.50
1297;DHT22;641;48.492;9.184;2023-07-08T08:22:54;23.90;49.40
1297;DHT22;641;48.492;9.184;2023-07-08T08:25:21;24.00;50.00
1297;DHT22;641;48.492;9.184;2023-07-08T08:27:47;24.00;49.60
1297;DHT22;641;48.492;9.184;2023-07-08T08:30:13;23.80;50.30
1297;DHT22;641;48.492;9.184;2023-07-08T08:32:39;23.80;50.80
1297;DHT22;641;48.492;9.184;2023-07-08T08:35:04;24.00;51.90
1297;DHT22;641;48.492;9.184;2023-07-08T08:37:30;24.10;50.70
1297;DHT22;641;48.492;9.184;2023-07-08T08:39:56;24.10;51.20
1297;DHT22;641;48.492;9.184;2023-07-08T08:42:32;24.20;51.20
1297;DHT22;641;48.492;9.184;2023-07-08T08:45:00;24.10;50.10
1297;DHT22;641;48.492;9.184;2023-07-08T08:47:41;24.00;50.20
1297;DHT22;641;48.492;9.184;2023-07-08T08:52:42;23.70;50.50
1297;DHT22;641;48.492;9.184;2023-07-08T08:55:11;23.60;50.30
1297;DHT22;641;48.492;9.184;2023-07-08T08:57:47;23.70;51.00
1297;DHT22;641;48.492;9.184;2023-07-08T09:00:18;23.50;49.70
1297;DHT22;641;48.492;9.184;2023-07-08T09:03:01;23.60;51.20
1297;DHT22;641;48.492;9.184;2023-07-08T09:05:28;23.80;51.70
1297;DHT22;641;48.492;9.184;2023-07-08T09:08:16;23.90;48.60
1297;DHT22;641;48.492;9.184;2023-07-08T09:10:55;24.00;50.30
1297;DHT22;641;48.492;9.184;2023-07-08T09:13:31;24.10;49.30
1297;DHT22;641;48.492;9.184;2023-07-08T09:16:39;24.10;49.20
1297;DHT22;641;48.492;9.184;2023-07-08T09:19:27;24.20;51.00
1297;DHT22;641;48.492;9.184;2023-07-08T09:22:36;24.20;51.10
1297;DHT22;641;48.492;9.184;2023-07-08T09:27:28;24.00;48.30
1297;DHT22;641;48.492;9.184;2023-07-08T09:29:53;24.00;49.60
1297;DHT22;641;48.492;9.184;2023-07-08T09:32:21;23.90;49.00
1297;DHT22;641;48.492;9.184;2023-07-08T09:34:51;24.00;51.30
1297;DHT22;641;48.492;9.184;2023-07-08T09:37:44;24.10;50.90
1297;DHT22;641;48.492;9.184;2023-07-08T09:42:51;24.30;50.70
1297;DHT22;641;48.492;9.184;2023-07-08T09:45:23;24.60;50.60
1297;DHT22;641;48.492;9.184;2023-07-08T09:47:53;24.90;49.80
1297;DHT22;641;48.492;9.184;2023-07-08T09:50:27;25.10;49.10
1297;DHT22;641;48.492;9.184;2023-07-08T09:52:55;25.20;48.30
1297;DHT22;641;48.492;9.184;2023-07-08T09:55:30;25.40;48.30
1297;DHT22;641;48.492;9.184;2023-07-08T09:57:58;25.60;48.50
1297;DHT22;641;48.492;9.184;2023-07-08T10:00:29;25.80;47.20
1297;DHT22;641;48.492;9.184;2023-07-08T10:03:11;25.60;47.50
1297;DHT22;641;48.492;9.184;2023-07-08T10:05:42;25.70;47.40
1297;DHT22;641;48.492;9.184;2023-07-08T10:08:22;25.70;47.30
1297;DHT22;641;48.492;9.184;2023-07-08T10:11:04;25.70;46.80
1297;DHT22;641;48.492;9.184;2023-07-08T10:13:44;25.50;47.00
1297;DHT22;641;48.492;9.184;2023-07-08T10:18:46;25.50;46.70
1297;DHT22;641;48.492;9.184;2023-07-08T10:26:24;25.70;46.70
1297;DHT22;641;48.492;9.184;2023-07-08T10:39:06;26.90;43.60
1297;DHT22;641;48.492;9.184;2023-07-08T10:44:33;27.00;43.40
1297;DHT22;641;48.492;9.184;2023-07-08T10:52:42;27.00;42.70
1297;DHT22;641;48.492;9.184;2023-07-08T11:00:51;27.00;42.40
1297;DHT22;641;48.492;9.184;2023-07-08T11:06:14;27.00;43.00
1297;DHT22;641;48.492;9.184;2023-07-08T11:08:45;27.00;43.50
1297;DHT22;641;48.492;9.184;2023-07-08T11:14:13;27.00;42.90
1297;DHT22;641;48.492;9.184;2023-07-08T11:16:47;27.10;43.10
1297;DHT22;641;48.492;9.184;2023-07-08T11:19:30;27.30;42.20
1297;DHT22;641;48.492;9.184;2023-07-08T11:22:00;27.60;42.40
1297;DHT22;641;48.492;9.184;2023-07-08T11:27:06;27.60;41.70
1297;DHT22;641;48.492;9.184;2023-07-08T11:29:41;27.70;42.80
1297;DHT22;641;48.492;9.184;2023-07-08T11:32:13;27.90;42.60
1297;DHT22;641;48.492;9.184;2023-07-08T11:34:41;27.80;40.20
1297;DHT22;641;48.492;9.184;2023-07-08T11:37:07;27.90;41.40
1297;DHT22;641;48.492;9.184;2023-07-08T11:39:44;27.90;41.10
1297;DHT22;641;48.492;9.184;2023-07-08T11:42:15;27.90;41.10
1297;DHT22;641;48.492;9.184;2023-07-08T11:44:44;28.00;40.70
1297;DHT22;641;48.492;9.184;2023-07-08T11:47:26;28.10;41.00
1297;DHT22;641;48.492;9.184;2023-07-08T11:49:53;28.10;40.00
1297;DHT22;641;48.492;9.184;2023-07-08T11:52:20;28.00;39.70
1297;DHT22;641;48.492;9.184;2023-07-08T11:54:47;28.10;40.50
1297;DHT22;641;48.492;9.184;2023-07-08T11:57:26;28.20;40.40
1297;DHT22;641;48.492;9.184;2023-07-08T12:02:52;28.30;39.20
1297;DHT22;641;48.492;9.184;2023-07-08T12:05:29;28.30;39.80
1297;DHT22;641;48.492;9.184;2023-07-08T12:07:56;28.30;39.60
1297;DHT22;641;48.492;9.184;2023-07-08T12:10:32;28.20;38.80
1297;DHT22;641;48.492;9.184;2023-07-08T12:13:02;28.10;39.80
1297;DHT22;641;48.492;9.184;2023-07-08T12:15:30;28.40;39.40
1297;DHT22;641;48.492;9.184;2023-07-08T12:18:02;28.40;39.50
1297;DHT22;641;48.492;9.184;2023-07-08T12:20:36;28.60;38.90
1297;DHT22;641;48.492;9.184;2023-07-08T12:23:03;28.60;39.20
1297;DHT22;641;48.492;9.184;2023-07-08T12:25:34;28.80;39.00
1297;DHT22;641;48.492;9.184;2023-07-08T12:28:01;29.10;39.20
1297;DHT22;641;48.492;9.184;2023-07-08T12:30:32;29.10;37.60
1297;DHT22;641;48.492;9.184;2023-07-08T12:32:59;28.80;36.90
1297;DHT22;641;48.492;9.184;2023-07-08T12:35:30;28.70;38.50
1297;DHT22;641;48.492;9.184;2023-07-08T12:38:14;28.60;38.80
1297;DHT22;641;48.492;9.184;2023-07-08T12:40:43;28.60;39.20
1297;DHT22;641;48.492;9.184;2023-07-08T12:43:12;28.60;38.70
1297;DHT22;641;48.492;9.184;2023-07-08T12:45:38;28.70;38.80
1297;DHT22;641;48.492;9.184;2023-07-08T12:48:04;28.80;37.50
1297;DHT22;641;48.492;9.184;2023-07-08T12:50:30;28.90;38.10
1297;DHT22;641;48.492;9.184;2023-07-08T12:52:55;28.90;37.30
1297;DHT22;641;48.492;9.184;2023-07-08T12:55:22;29.00;38.10
1297;DHT22;641;48.492;9.184;2023-07-08T12:57:50;29.00;37.30
1297;DHT22;641;48.492;9.184;2023-07-08T13:00:30;29.00;36.70
1297;DHT22;641;48.492;9.184;2023-07-08T13:03:14;29.00;37.00
1297;DHT22;641;48.492;9.184;2023-07-08T13:05:41;29.00;36.70
1297;DHT22;641;48.492;9.184;2023-07-08T13:08:14;29.00;36.90
1297;DHT22;641;48.492;9.184;2023-07-08T13:10:42;28.80;35.80
1297;DHT22;641;48.492;9.184;2023-07-08T13:13:12;28.80;36.30
1297;DHT22;641;48.492;9.184;2023-07-08T13:15:40;29.00;37.10
1297;DHT22;641;48.492;9.184;2023-07-08T13:18:15;29.10;35.70
1297;DHT22;641;48.492;9.184;2023-07-08T13:20:43;29.30;37.00
1297;DHT22;641;48.492;9.184;2023-07-08T13:23:09;29.50;35.40
1297;DHT22;641;48.492;9.184;2023-07-08T13:25:38;29.60;36.00
1297;DHT22;641;48.492;9.184;2023-07-08T13:28:17;29.50;36.00
1297;DHT22;641;48.492;9.184;2023-07-08T13:33:22;29.40;36.90
1297;DHT22;641;48.492;9.184;2023-07-08T13:35:50;29.50;37.80
1297;DHT22;641;48.492;9.184;2023-07-08T13:38:22;29.60;36.00
1297;DHT22;641;48.492;9.184;2023-07-08T13:40:58;29.50;34.60
1297;DHT22;641;48.492;9.184;2023-07-08T13:43:26;29.40;34.40
1297;DHT22;641;48.492;9.184;2023-07-08T13:45:52;29.50;33.20
1297;DHT22;641;48.492;9.184;2023-07-08T13:48:28;29.50;33.50
1297;DHT22;641;48.492;9.184;2023-07-08T13:51:18;29.70;35.10
1297;DHT22;641;48.492;9.184;2023-07-08T13:53:47;30.00;34.30
1297;DHT22;641;48.492;9.184;2023-07-08T13:58:46;30.20;32.90
1297;DHT22;641;48.492;9.184;2023-07-08T14:01:22;30.40;33.20
1297;DHT22;641;48.492;9.184;2023-07-08T14:03:49;30.70;32.20
1297;DHT22;641;48.492;9.184;2023-07-08T14:06:23;30.70;32.50
1297;DHT22;641;48.492;9.184;2023-07-08T14:08:55;30.70;32.30
1297;DHT22;641;48.492;9.184;2023-07-08T14:11:21;30.80;31.80
1297;DHT22;641;48.492;9.184;2023-07-08T14:13:47;30.70;31.40
1297;DHT22;641;48.492;9.184;2023-07-08T14:16:23;30.50;31.30
1297;DHT22;641;48.492;9.184;2023-07-08T14:18:49;30.40;32.40
1297;DHT22;641;48.492;9.184;2023-07-08T14:21:15;30.30;33.00
1297;DHT22;641;48.492;9.184;2023-07-08T14:23:41;30.50;33.50
1297;DHT22;641;48.492;9.184;2023-07-08T14:26:11;30.80;33.30
1297;DHT22;641;48.492;9.184;2023-07-08T14:28:36;30.80;32.60
1297;DHT22;641;48.492;9.184;2023-07-08T14:31:02;31.00;32.40
1297;DHT22;641;48.492;9.184;2023-07-08T14:33:28;31.30;32.70
1297;DHT22;641;48.492;9.184;2023-07-08T14:35:53;31.30;32.50
1297;DHT22;641;48.492;9.184;2023-07-08T14:38:19;31.40;32.40
1297;DHT22;641;48.492;9.184;2023-07-08T14:40:44;31.20;33.20
1297;DHT22;641;48.492;9.184;2023-07-08T14:43:14;31.30;31.80
1297;DHT22;641;48.492;9.184;2023-07-08T14:45:43;31.40;32.90
1297;DHT22;641;48.492;9.184;2023-07-08T14:48:12;31.50;32.00
1297;DHT22;641;48.492;9.184;2023-07-08T14:50:38;31.80;31.50
1297;DHT22;641;48.492;9.184;2023-07-08T14:53:04;32.00;31.50
1297;DHT22;641;48.492;9.184;2023-07-08T14:55:30;32.10;32.10
1297;DHT22;641;48.492;9.184;2023-07-08T14:57:56;31.80;30.70
1297;DHT22;641;48.492;9.184;2023-07-08T15:00:22;31.10;32.10
1297;DHT22;641;48.492;9.184;2023-07-08T15:02:49;31.20;32.90
1297;DHT22;641;48.492;9.184;2023-07-08T15:05:19;31.50;32.10
1297;DHT22;641;48.492;9.184;2023-07-08T15:07:49;31.90;30.70
1297;DHT22;641;48.492;9.184;2023-07-08T15:10:14;32.30;31.00
1297;DHT22;641;48.492;9.184;2023-07-08T15:12:40;32.60;30.10
1297;DHT22;641;48.492;9.184;2023-07-08T15:15:14;33.00;30.00
1297;DHT22;641;48.492;9.184;2023-07-08T15:17:40;33.40;29.70
1297;DHT22;641;48.492;9.184;2023-07-08T15:20:11;33.50;29.30
1297;DHT22;641;48.492;9.184;2023-07-08T15:22:41;33.90;29.10
1297;DHT22;641;48.492;9.184;2023-07-08T15:25:09;34.70;29.00
1297;DHT22;641;48.492;9.184;2023-07-08T15:27:35;35.70;27.30
1297;DHT22;641;48.492;9.184;2023-07-08T15:30:00;35.90;27.30
1297;DHT22;641;48.492;9.184;2023-07-08T15:32:26;36.40;25.90
1297;DHT22;641;48.492;9.184;2023-07-08T15:34:51;37.00;25.30
1297;DHT22;641;48.492;9.184;2023-07-08T15:37:18;37.20;24.60
1297;DHT22;641;48.492;9.184;2023-07-08T15:39:44;37.20;24.40
1297;DHT22;641;48.492;9.184;2023-07-08T15:42:13;37.40;25.30
1297;DHT22;641;48.492;9.184;2023-07-08T15:44:39;37.80;24.30
1297;DHT22;641;48.492;9.184;2023-07-08T15:47:05;37.40;24.90
1297;DHT22;641;48.492;9.184;2023-07-08T15:49:32;37.90;25.20
1297;DHT22;641;48.492;9.184;2023-07-08T15:51:59;38.50;25.00
1297;DHT22;641;48.492;9.184;2023-07-08T15:54:25;39.40;23.30
1297;DHT22;641;48.492;9.184;2023-07-08T15:56:53;39.60;23.10
1297;DHT22;641;48.492;9.184;2023-07-08T15:59:28;40.10;22.70
1297;DHT22;641;48.492;9.184;2023-07-08T16:02:03;40.00;22.40
1297;DHT22;641;48.492;9.184;2023-07-08T16:04:33;40.00;22.50
1297;DHT22;641;48.492;9.184;2023-07-08T16:06:58;40.10;22.00
1297;DHT22;641;48.492;9.184;2023-07-08T16:09:24;39.90;22.20
1297;DHT22;641;48.492;9.184;2023-07-08T16:11:50;39.50;22.30
1297;DHT22;641;48.492;9.184;2023-07-08T16:14:17;39.60;22.80
1297;DHT22;641;48.492;9.184;2023-07-08T16:16:43;39.80;22.30
1297;DHT22;641;48.492;9.184;2023-07-08T16:19:13;40.20;22.50
1297;DHT22;641;48.492;9.184;2023-07-08T16:21:39;40.20;22.20
1297;DHT22;641;48.492;9.184;2023-07-08T16:24:06;39.60;21.80
1297;DHT22;641;48.492;9.184;2023-07-08T16:26:32;39.80;22.00
1297;DHT22;641;48.492;9.184;2023-07-08T16:28:58;40.10;22.10
1297;DHT22;641;48.492;9.184;2023-07-08T16:31:25;39.30;22.60
1297;DHT22;641;48.492;9.184;2023-07-08T16:33:54;38.90;23.30
1297;DHT22;641;48.492;9.184;2023-07-08T16:36:27;38.90;23.60
1297;DHT22;641;48.492;9.184;2023-07-08T16:38:53;39.00;23.90
1297;DHT22;641;48.492;9.184;2023-07-08T16:41:29;39.40;22.60
1297;DHT22;641;48.492;9.184;2023-07-08T16:43:56;38.60;23.10
1297;DHT22;641;48.492;9.184;2023-07-08T16:46:22;37.80;23.90
1297;DHT22;641;48.492;9.184;2023-07-08T16:48:47;36.40;25.20
1297;DHT22;641;48.492;9.184;2023-07-08T16:51:25;35.80;26.20
1297;DHT22;641;48.492;9.184;2023-07-08T16:53:51;35.30;26.80
1297;DHT22;641;48.492;9.184;2023-07-08T16:56:21;34.70;27.40
1297;DHT22;641;48.492;9.184;2023-07-08T16:58:47;34.30;27.90
1297;DHT22;641;48.492;9.184;2023-07-08T17:01:21;34.00;27.70
1297;DHT22;641;48.492;9.184;2023-07-08T17:03:48;33.70;28.80
1297;DHT22;641;48.492;9.184;2023-07-08T17:06:14;33.20;29.30
1297;DHT22;641;48.492;9.184;2023-07-08T17:08:40;32.90;30.00
1297;DHT22;641;48.492;9.184;2023-07-08T17:11:06;32.60;31.00
1297;DHT22;641;48.492;9.184;2023-07-08T17:13:31;32.60;30.50
1297;DHT22;641;48.492;9.184;2023-07-08T17:15:57;32.50;30.50
1297;DHT22;641;48.492;9.184;2023-07-08T17:18:24;32.50;30.90
1297;DHT22;641;48.492;9.184;2023-07-08T17:20:51;32.30;31.10
1297;DHT22;641;48.492;9.184;2023-07-08T17:23:19;32.10;31.30
1297;DHT22;641;48.492;9.184;2023-07-08T17:25:44;32.20;31.30